createdAt,value
2018-08-30T00:01:10.378Z,20.95
2018-08-30T00:03:38.765Z,20.91
2018-08-30T00:06:07.183Z,20.88
2018-08-30T00:08:35.581Z,20.86
2018-08-30T00:11:04.047Z,20.85
2018-08-30T00:13:32.424Z,20.81
2018-08-30T00:16:00.773Z,20.81
2018-08-30T00:18:29.212Z,20.77
2018-08-30T00:20:57.612Z,20.65
2018-08-30T00:23:25.926Z,20.70
2018-08-30T00:25:54.316Z,20.69
2018-08-30T00:28:22.676Z,20.64
2018-08-30T00:30:51.050Z,20.56
2018-08-30T00:33:19.527Z,20.53
2018-08-30T00:35:47.842Z,20.55
2018-08-30T00:38:16.177Z,20.48
2018-08-30T00:41:15.232Z,20.46
2018-08-30T00:43:43.568Z,20.50
2018-08-30T00:46:11.899Z,20.53
2018-08-30T00:48:40.256Z,20.51
2018-08-30T00:51:08.626Z,20.36
2018-08-30T00:53:36.977Z,20.40
2018-08-30T00:56:05.313Z,20.41
2018-08-30T00:58:33.611Z,20.37
2018-08-30T01:01:02.189Z,20.35
2018-08-30T01:03:30.587Z,20.33
2018-08-30T01:05:58.979Z,20.19
2018-08-30T01:08:27.476Z,20.17
2018-08-30T01:10:55.871Z,20.06
2018-08-30T01:13:24.520Z,20.04
2018-08-30T01:15:52.946Z,20.02
2018-08-30T01:18:21.430Z,20.04
2018-08-30T01:20:49.853Z,19.90
2018-08-30T01:23:18.299Z,19.89
2018-08-30T01:25:46.703Z,19.81
2018-08-30T01:28:15.061Z,19.68
2018-08-30T01:30:43.500Z,19.71
2018-08-30T01:33:11.940Z,19.66
2018-08-30T01:35:40.284Z,19.56
2018-08-30T01:38:08.639Z,19.54
2018-08-30T01:40:37.056Z,19.40
2018-08-30T01:43:05.708Z,19.36
2018-08-30T01:45:34.075Z,19.30
2018-08-30T01:48:02.423Z,19.15
2018-08-30T01:50:30.983Z,19.11
2018-08-30T01:52:59.363Z,18.99
2018-08-30T01:55:27.800Z,18.97
2018-08-30T01:57:56.156Z,18.79
2018-08-30T02:00:24.501Z,18.83
2018-08-30T02:02:52.834Z,18.76
2018-08-30T02:05:21.132Z,18.68
2018-08-30T02:07:49.568Z,18.65
2018-08-30T02:10:17.870Z,18.68
2018-08-30T02:12:46.347Z,18.70
2018-08-30T02:15:14.676Z,18.54
2018-08-30T02:17:43.099Z,18.44
2018-08-30T02:20:11.474Z,18.45
2018-08-30T02:22:39.866Z,18.48
2018-08-30T02:25:08.269Z,18.51
2018-08-30T02:27:36.657Z,18.48
2018-08-30T02:30:05.148Z,18.38
2018-08-30T02:32:33.477Z,18.38
2018-08-30T02:35:02.115Z,18.27
2018-08-30T02:37:30.465Z,18.36
2018-08-30T02:39:58.805Z,18.30
2018-08-30T02:42:27.182Z,18.31
2018-08-30T02:44:55.507Z,18.32
2018-08-30T02:47:23.849Z,18.22
2018-08-30T02:49:52.223Z,18.23
2018-08-30T02:52:20.593Z,18.28
2018-08-30T02:54:49.133Z,18.33
2018-08-30T02:57:17.529Z,18.22
2018-08-30T03:02:44.928Z,18.14
2018-08-30T03:05:13.304Z,18.10
2018-08-30T03:07:41.682Z,18.06
2018-08-30T03:10:10.144Z,18.05
2018-08-30T03:12:38.550Z,18.00
2018-08-30T03:15:14.320Z,18.01
2018-08-30T03:17:43.022Z,17.87
2018-08-30T03:20:12.832Z,17.90
2018-08-30T03:22:41.975Z,17.71
2018-08-30T03:25:10.493Z,17.73
2018-08-30T03:27:38.921Z,17.57
2018-08-30T03:30:08.188Z,17.53
2018-08-30T03:32:36.742Z,17.60
2018-08-30T03:35:05.140Z,17.40
2018-08-30T03:37:33.712Z,17.30
2018-08-30T03:40:02.115Z,17.30
2018-08-30T03:42:30.456Z,17.33
2018-08-30T03:44:59.371Z,17.25
2018-08-30T03:47:27.721Z,17.30
2018-08-30T03:49:56.293Z,17.30
2018-08-30T03:52:24.657Z,17.28
2018-08-30T03:54:52.991Z,17.16
2018-08-30T03:57:21.336Z,17.17
2018-08-30T03:59:49.654Z,17.17
2018-08-30T04:02:18.075Z,17.13
2018-08-30T04:04:46.516Z,17.15
2018-08-30T04:07:14.878Z,17.08
2018-08-30T04:09:43.693Z,17.14
2018-08-30T04:12:11.990Z,17.11
2018-08-30T04:14:40.610Z,17.15
2018-08-30T04:17:09.345Z,17.11
2018-08-30T04:19:37.703Z,17.06
2018-08-30T04:22:07.027Z,16.89
2018-08-30T04:24:35.441Z,16.96
2018-08-30T04:27:03.878Z,16.96
2018-08-30T04:29:32.409Z,16.95
2018-08-30T04:32:00.798Z,16.91
2018-08-30T04:34:29.168Z,16.89
2018-08-30T04:36:57.951Z,16.92
2018-08-30T04:39:26.335Z,16.81
2018-08-30T04:41:54.932Z,16.86
2018-08-30T04:44:23.348Z,16.84
2018-08-30T04:46:52.781Z,16.82
2018-08-30T04:49:22.065Z,16.88
2018-08-30T04:51:50.443Z,16.87
2018-08-30T04:54:18.852Z,16.92
2018-08-30T04:56:47.226Z,16.85
2018-08-30T04:59:15.580Z,16.86
2018-08-30T05:01:43.958Z,16.88
2018-08-30T05:04:12.551Z,16.74
2018-08-30T05:06:40.955Z,16.79
2018-08-30T05:09:11.144Z,16.79
2018-08-30T05:11:39.552Z,16.85
2018-08-30T05:14:10.004Z,16.83
2018-08-30T05:16:38.972Z,16.82
2018-08-30T05:19:07.679Z,16.75
2018-08-30T05:21:36.579Z,16.69
2018-08-30T05:24:05.611Z,16.76
2018-08-30T05:26:34.023Z,16.75
2018-08-30T05:29:02.737Z,16.71
2018-08-30T05:31:31.514Z,16.73
2018-08-30T05:34:00.271Z,16.71
2018-08-30T05:36:28.845Z,16.71
2018-08-30T05:38:57.425Z,16.74
2018-08-30T05:41:25.889Z,16.71
2018-08-30T05:43:54.619Z,16.70
2018-08-30T05:46:23.336Z,16.65
2018-08-30T05:48:51.696Z,16.68
2018-08-30T05:51:20.269Z,16.72
2018-08-30T05:53:48.728Z,16.75
2018-08-30T05:56:17.459Z,16.69
2018-08-30T05:58:45.881Z,16.64
2018-08-30T06:01:14.358Z,16.64
2018-08-30T06:03:42.850Z,16.57
2018-08-30T06:06:11.213Z,16.64
2018-08-30T06:08:39.874Z,16.59
2018-08-30T06:11:08.264Z,16.59
2018-08-30T06:13:36.904Z,16.62
2018-08-30T06:16:06.020Z,16.54
2018-08-30T06:18:34.479Z,16.66
2018-08-30T06:21:02.828Z,16.66
2018-08-30T06:23:31.336Z,16.63
2018-08-30T06:26:00.358Z,16.70
2018-08-30T06:28:29.078Z,16.71
2018-08-30T06:30:58.172Z,16.74
2018-08-30T06:33:26.494Z,16.73
2018-08-30T06:35:54.891Z,16.71
2018-08-30T06:38:23.340Z,16.75
2018-08-30T06:40:52.102Z,16.67
2018-08-30T06:43:21.019Z,16.72
2018-08-30T06:45:49.625Z,16.74
2018-08-30T06:48:18.501Z,16.74
2018-08-30T06:50:46.998Z,16.70
2018-08-30T06:53:15.687Z,16.73
2018-08-30T06:55:44.255Z,16.68
2018-08-30T06:58:12.951Z,16.63
2018-08-30T07:00:41.317Z,16.69
2018-08-30T07:03:09.820Z,16.70
2018-08-30T07:05:38.217Z,16.67
2018-08-30T07:08:06.761Z,16.67
2018-08-30T07:10:35.087Z,16.65
2018-08-30T07:13:03.525Z,16.63
2018-08-30T07:15:32.781Z,16.61
2018-08-30T07:18:01.293Z,16.62
2018-08-30T07:20:29.656Z,16.54
2018-08-30T07:22:58.465Z,16.58
2018-08-30T07:25:26.808Z,16.61
2018-08-30T07:27:55.260Z,16.51
2018-08-30T07:30:23.688Z,16.51
2018-08-30T07:32:52.187Z,16.43
2018-08-30T07:35:20.631Z,16.46
2018-08-30T07:37:49.507Z,16.46
2018-08-30T07:40:18.116Z,16.49
2018-08-30T07:42:46.734Z,16.49
2018-08-30T07:45:15.415Z,16.40
2018-08-30T07:47:43.989Z,16.41
2018-08-30T07:50:12.645Z,16.43
2018-08-30T07:52:41.120Z,16.26
2018-08-30T07:55:10.011Z,16.26
2018-08-30T07:57:38.717Z,16.17
2018-08-30T08:00:07.791Z,16.14
2018-08-30T08:02:36.319Z,16.07
2018-08-30T08:05:04.749Z,15.91
2018-08-30T08:07:33.609Z,15.97
2018-08-30T08:10:02.027Z,15.91
2018-08-30T08:12:31.144Z,15.88
2018-08-30T08:15:00.083Z,15.91
2018-08-30T08:17:29.039Z,15.88
2018-08-30T08:19:57.735Z,15.86
2018-08-30T08:22:26.503Z,15.97
2018-08-30T08:24:56.638Z,16.02
2018-08-30T08:27:25.396Z,16.03
2018-08-30T08:29:54.509Z,16.00
2018-08-30T08:32:22.911Z,16.01
2018-08-30T08:34:51.627Z,16.10
2018-08-30T08:37:20.081Z,16.07
2018-08-30T08:39:49.484Z,16.11
2018-08-30T08:42:17.928Z,16.16
2018-08-30T08:44:46.720Z,16.16
2018-08-30T08:47:15.384Z,16.14
2018-08-30T08:49:43.831Z,16.19
2018-08-30T08:52:12.682Z,16.15
2018-08-30T08:54:41.035Z,16.20
2018-08-30T08:57:09.805Z,16.22
2018-08-30T08:59:38.462Z,16.23
2018-08-30T09:02:06.795Z,16.25
2018-08-30T09:04:35.430Z,16.32
2018-08-30T09:07:04.152Z,16.31
2018-08-30T09:09:32.539Z,16.32
2018-08-30T09:12:00.927Z,16.41
2018-08-30T09:14:29.591Z,16.45
2018-08-30T09:16:58.344Z,16.48
2018-08-30T09:19:27.118Z,16.49
2018-08-30T09:21:55.737Z,16.51
2018-08-30T09:24:24.172Z,16.48
2018-08-30T09:26:53.069Z,16.47
2018-08-30T09:29:21.851Z,16.49
2018-08-30T09:31:50.220Z,16.49
2018-08-30T09:34:19.351Z,16.46
2018-08-30T09:36:47.957Z,16.51
2018-08-30T09:39:17.303Z,16.56
2018-08-30T09:41:45.986Z,16.58
2018-08-30T09:44:14.644Z,16.64
2018-08-30T09:46:43.683Z,16.70
2018-08-30T09:49:12.226Z,16.76
2018-08-30T09:51:40.678Z,16.87
2018-08-30T09:54:09.081Z,16.90
2018-08-30T09:56:37.818Z,16.94
2018-08-30T09:59:06.420Z,16.95
2018-08-30T10:01:40.328Z,17.08
2018-08-30T10:04:09.388Z,17.16
2018-08-30T10:06:38.055Z,17.25
2018-08-30T10:09:09.099Z,17.30
2018-08-30T10:11:37.599Z,17.38
2018-08-30T10:14:06.353Z,17.37
2018-08-30T10:16:35.238Z,17.37
2018-08-30T10:19:03.879Z,17.39
2018-08-30T10:21:32.841Z,17.37
2018-08-30T10:24:01.531Z,17.34
2018-08-30T10:26:31.353Z,17.28
2018-08-30T10:29:00.132Z,17.32
2018-08-30T10:31:28.920Z,17.32
2018-08-30T10:33:57.574Z,17.24
2018-08-30T10:36:25.937Z,17.24
2018-08-30T10:38:55.062Z,17.32
2018-08-30T10:41:23.685Z,17.42
2018-08-30T10:43:52.657Z,17.61
2018-08-30T10:46:22.318Z,17.78
2018-08-30T10:48:51.530Z,17.93
2018-08-30T10:51:20.335Z,18.03
2018-08-30T10:53:48.996Z,18.06
2018-08-30T10:56:18.012Z,18.24
2018-08-30T10:58:46.699Z,18.33
2018-08-30T11:01:15.693Z,18.35
2018-08-30T11:03:44.477Z,18.46
2018-08-30T11:06:12.925Z,18.49
2018-08-30T11:08:41.263Z,18.51
2018-08-30T11:11:09.901Z,18.40
2018-08-30T11:13:38.371Z,18.26
2018-08-30T11:16:06.944Z,18.30
2018-08-30T11:18:35.481Z,18.39
2018-08-30T11:21:04.312Z,18.54
2018-08-30T11:23:32.948Z,18.50
2018-08-30T11:26:01.821Z,18.69
2018-08-30T11:28:30.373Z,18.72
2018-08-30T11:30:58.713Z,18.67
2018-08-30T11:33:27.330Z,18.65
2018-08-30T11:35:55.667Z,18.70
2018-08-30T11:38:24.354Z,18.63
2018-08-30T11:40:52.938Z,18.74
2018-08-30T11:43:21.448Z,18.78
2018-08-30T11:45:49.837Z,18.84
2018-08-30T11:48:18.358Z,18.78
2018-08-30T11:50:46.767Z,18.77
2018-08-30T11:53:15.152Z,18.80
2018-08-30T11:55:43.689Z,18.88
2018-08-30T11:58:12.172Z,18.77
2018-08-30T12:00:40.777Z,18.68
2018-08-30T12:03:09.344Z,18.71
2018-08-30T12:05:38.034Z,18.60
2018-08-30T12:08:07.942Z,18.49
2018-08-30T12:10:39.113Z,18.57
2018-08-30T12:13:07.885Z,18.53
2018-08-30T12:15:36.678Z,18.63
2018-08-30T12:18:05.712Z,18.65
2018-08-30T12:20:35.058Z,18.67
2018-08-30T12:23:04.668Z,18.60
2018-08-30T12:25:34.061Z,18.35
2018-08-30T12:28:02.566Z,18.27
2018-08-30T12:30:31.333Z,18.23
2018-08-30T12:33:00.148Z,17.95
2018-08-30T12:35:29.476Z,17.94
2018-08-30T12:37:59.630Z,17.83
2018-08-30T12:40:30.166Z,17.84
2018-08-30T12:42:59.544Z,17.75
2018-08-30T12:45:28.434Z,17.54
2018-08-30T12:47:59.021Z,17.32
2018-08-30T12:50:29.037Z,17.29
2018-08-30T12:52:58.423Z,17.31
2018-08-30T12:55:27.851Z,17.36
2018-08-30T12:57:58.277Z,17.26
2018-08-30T13:00:28.120Z,17.16
2018-08-30T13:02:57.810Z,17.22
2018-08-30T13:05:28.005Z,17.04
2018-08-30T13:07:58.264Z,17.06
2018-08-30T13:10:27.802Z,17.11
2018-08-30T13:12:56.291Z,17.15
2018-08-30T13:15:26.225Z,17.24
2018-08-30T13:17:56.596Z,17.26
2018-08-30T13:20:26.163Z,17.24
2018-08-30T13:22:55.432Z,17.25
2018-08-30T13:25:24.935Z,17.35
2018-08-30T13:27:54.363Z,17.42
2018-08-30T13:30:25.181Z,17.35
2018-08-30T13:32:54.675Z,17.54
2018-08-30T13:35:24.307Z,17.55
2018-08-30T13:37:53.678Z,17.53
2018-08-30T13:40:22.870Z,17.73
2018-08-30T13:42:51.690Z,17.76
2018-08-30T13:45:21.523Z,17.85
2018-08-30T13:47:50.760Z,17.95
2018-08-30T13:50:20.483Z,17.95
2018-08-30T13:52:49.066Z,18.02
2018-08-30T13:55:19.050Z,18.04
2018-08-30T13:57:49.346Z,18.00
2018-08-30T14:00:19.733Z,18.11
2018-08-30T14:02:49.221Z,18.17
2018-08-30T14:05:19.066Z,18.09
2018-08-30T14:07:49.472Z,18.13
2018-08-30T14:10:20.117Z,18.06
2018-08-30T14:12:49.731Z,18.03
2018-08-30T14:15:19.322Z,17.90
2018-08-30T14:17:48.620Z,18.04
2018-08-30T14:20:18.145Z,17.96
2018-08-30T14:22:47.977Z,18.06
2018-08-30T14:25:17.787Z,18.10
2018-08-30T14:27:47.385Z,18.24
2018-08-30T14:30:16.734Z,18.34
2018-08-30T14:32:48.122Z,18.53
2018-08-30T14:35:17.507Z,18.75
2018-08-30T14:37:46.927Z,18.78
2018-08-30T14:40:16.433Z,18.88
2018-08-30T14:42:45.930Z,19.02
2018-08-30T14:45:15.852Z,18.92
2018-08-30T14:47:46.329Z,18.74
2018-08-30T14:50:15.408Z,18.59
2018-08-30T14:52:44.787Z,18.43
2018-08-30T14:55:14.067Z,18.44
2018-08-30T14:57:43.451Z,18.31
2018-08-30T15:00:13.474Z,18.26
2018-08-30T15:02:43.772Z,17.83
2018-08-30T15:05:13.239Z,17.73
2018-08-30T15:07:42.882Z,17.65
2018-08-30T15:10:12.686Z,17.53
2018-08-30T15:12:41.642Z,17.36
2018-08-30T15:15:11.601Z,17.52
2018-08-30T15:17:41.642Z,17.49
2018-08-30T15:20:11.243Z,17.47
2018-08-30T15:22:41.826Z,17.48
2018-08-30T15:25:12.002Z,17.45
2018-08-30T15:27:41.392Z,17.40
2018-08-30T15:30:11.096Z,17.52
2018-08-30T15:32:40.410Z,17.41
2018-08-30T15:35:09.642Z,17.49
2018-08-30T15:37:39.286Z,17.40
2018-08-30T15:40:08.808Z,17.53
2018-08-30T15:42:39.580Z,17.52
2018-08-30T15:45:10.110Z,17.61
2018-08-30T15:47:39.806Z,17.61
2018-08-30T15:50:09.546Z,17.49
2018-08-30T15:52:39.366Z,17.49
2018-08-30T15:55:09.478Z,17.52
2018-08-30T15:57:38.987Z,17.54
2018-08-30T16:00:08.609Z,17.41
2018-08-30T16:02:38.210Z,17.41
2018-08-30T16:05:08.238Z,17.47
2018-08-30T16:07:37.082Z,17.51
2018-08-30T16:10:07.839Z,17.53
2018-08-30T16:12:37.956Z,17.61
2018-08-30T16:15:07.271Z,17.57
2018-08-30T16:17:37.145Z,17.65
2018-08-30T16:20:07.321Z,17.63
2018-08-30T16:22:46.726Z,17.64
2018-08-30T16:25:16.671Z,17.68
2018-08-30T16:27:47.242Z,17.62
2018-08-30T16:30:16.843Z,17.65
2018-08-30T16:32:46.822Z,17.67
2018-08-30T16:35:16.421Z,17.63
2018-08-30T16:37:45.933Z,17.61
2018-08-30T16:40:15.583Z,17.61
2018-08-30T16:42:45.791Z,17.65
2018-08-30T16:45:15.093Z,17.64
2018-08-30T16:47:44.692Z,17.56
2018-08-30T16:50:14.933Z,17.50
2018-08-30T16:52:45.385Z,17.43
2018-08-30T16:55:14.677Z,17.37
2018-08-30T16:57:44.312Z,17.30
2018-08-30T17:00:13.944Z,17.23
2018-08-30T17:02:44.080Z,17.17
2018-08-30T17:05:14.199Z,17.07
2018-08-30T17:07:43.582Z,17.00
2018-08-30T17:10:13.500Z,16.93
2018-08-30T17:15:14.422Z,16.61
2018-08-30T17:17:44.269Z,16.53
2018-08-30T17:20:49.468Z,16.57
2018-08-30T17:23:20.020Z,16.49
2018-08-30T17:25:48.778Z,16.45
2018-08-30T17:28:17.194Z,16.45
2018-08-30T17:30:45.663Z,16.38
2018-08-30T17:33:14.077Z,16.35
2018-08-30T17:35:42.484Z,16.40
2018-08-30T17:38:10.916Z,16.34
2018-08-30T17:40:39.319Z,16.34
2018-08-30T17:43:07.719Z,16.32
2018-08-30T17:45:37.070Z,16.25
2018-08-30T17:48:05.747Z,16.29
2018-08-30T17:50:34.240Z,16.29
2018-08-30T17:53:02.496Z,16.22
2018-08-30T17:55:32.409Z,16.12
2018-08-30T17:58:02.633Z,16.08
2018-08-30T18:00:32.953Z,16.11
2018-08-30T18:03:02.736Z,16.18
2018-08-30T18:05:32.764Z,16.12
2018-08-30T18:08:02.195Z,16.03
2018-08-30T18:10:31.580Z,16.11
2018-08-30T18:13:01.378Z,16.18
2018-08-30T18:15:31.114Z,16.16
2018-08-30T18:18:00.812Z,16.18
2018-08-30T18:20:31.830Z,16.14
2018-08-30T18:23:01.548Z,16.14
2018-08-30T18:25:30.021Z,16.18
2018-08-30T18:27:59.396Z,16.11
2018-08-30T18:30:28.891Z,16.17
2018-08-30T18:32:58.440Z,16.17
2018-08-30T18:35:28.856Z,16.12
2018-08-30T18:37:58.563Z,16.06
2018-08-30T18:40:29.137Z,16.10
2018-08-30T18:42:58.717Z,16.06
2018-08-30T18:45:28.208Z,16.00
2018-08-30T18:47:58.843Z,15.95
2018-08-30T18:50:29.374Z,15.99
2018-08-30T18:52:58.973Z,16.00
2018-08-30T18:55:29.012Z,15.94
2018-08-30T18:57:59.122Z,15.94
2018-08-30T19:00:28.588Z,15.96
2018-08-30T19:03:00.570Z,15.93
2018-08-30T19:05:29.810Z,15.90
2018-08-30T19:07:59.931Z,15.89
2018-08-30T19:10:29.930Z,15.88
2018-08-30T19:13:00.774Z,15.82
2018-08-30T19:15:36.302Z,15.83
2018-08-30T19:18:11.353Z,15.83
2018-08-30T19:20:41.633Z,15.74
2018-08-30T19:23:10.693Z,15.73
2018-08-30T19:25:40.639Z,15.67
2018-08-30T19:28:10.510Z,15.64
2018-08-30T19:30:40.089Z,15.53
2018-08-30T19:33:09.883Z,15.45
2018-08-30T19:35:44.354Z,15.41
2018-08-30T19:38:13.448Z,15.36
2018-08-30T19:40:48.420Z,15.28
2018-08-30T19:43:17.305Z,15.29
2018-08-30T19:45:47.509Z,15.15
2018-08-30T19:50:47.294Z,15.09
2018-08-30T19:53:16.842Z,14.93
2018-08-30T19:55:45.954Z,14.81
2018-08-30T19:58:15.165Z,14.85
2018-08-30T20:00:44.323Z,14.83
2018-08-30T20:03:13.953Z,14.83
2018-08-30T20:05:43.237Z,14.76
2018-08-30T20:08:12.475Z,14.64
2018-08-30T20:10:41.490Z,14.66
2018-08-30T20:13:11.035Z,14.54
2018-08-30T20:15:40.236Z,14.55
2018-08-30T20:18:09.572Z,14.56
2018-08-30T20:20:38.842Z,14.46
2018-08-30T20:23:08.239Z,14.39
2018-08-30T20:25:37.522Z,14.45
2018-08-30T20:28:06.541Z,14.33
2018-08-30T20:30:36.422Z,14.29
2018-08-30T20:33:05.949Z,14.36
2018-08-30T20:36:05.454Z,14.22
2018-08-30T20:38:34.644Z,14.33
2018-08-30T20:41:04.053Z,14.29
2018-08-30T20:43:33.470Z,14.29
2018-08-30T20:46:02.927Z,14.25
2018-08-30T20:48:32.271Z,14.18
2018-08-30T20:51:01.307Z,14.18
2018-08-30T20:53:30.370Z,14.03
2018-08-30T20:55:59.605Z,14.03
2018-08-30T20:58:28.897Z,14.04
2018-08-30T21:00:58.647Z,13.97
2018-08-30T21:03:27.766Z,13.89
2018-08-30T21:05:56.219Z,13.80
2018-08-30T21:08:24.616Z,13.79
2018-08-30T21:10:53.070Z,13.76
2018-08-30T21:13:21.474Z,13.67
2018-08-30T21:15:49.802Z,13.67
2018-08-30T21:18:18.284Z,13.63
2018-08-30T21:20:46.678Z,13.59
2018-08-30T21:23:15.012Z,13.63
2018-08-30T21:25:43.473Z,13.60
2018-08-30T21:28:11.859Z,13.54
2018-08-30T21:30:40.178Z,13.41
2018-08-30T21:33:08.847Z,13.43
2018-08-30T21:35:37.164Z,13.45
2018-08-30T21:38:05.560Z,13.47
2018-08-30T21:40:33.878Z,13.48
2018-08-30T21:43:02.239Z,13.48
2018-08-30T21:45:30.918Z,13.47
2018-08-30T21:47:59.260Z,13.46
2018-08-30T21:50:27.630Z,13.48
2018-08-30T21:52:56.030Z,13.32
2018-08-30T21:55:24.382Z,13.38
2018-08-30T21:57:52.736Z,13.37
2018-08-30T22:00:21.185Z,13.29
2018-08-30T22:02:49.635Z,13.30
2018-08-30T22:05:18.039Z,13.28
2018-08-30T22:07:46.407Z,13.22
2018-08-30T22:10:14.895Z,13.23
2018-08-30T22:12:43.366Z,13.20
2018-08-30T22:15:11.772Z,13.15
2018-08-30T22:17:40.202Z,13.10
2018-08-30T22:20:08.594Z,13.12
2018-08-30T22:22:36.920Z,13.02
2018-08-30T22:25:06.145Z,13.04
2018-08-30T22:27:34.671Z,13.08
2018-08-30T22:30:03.636Z,13.01
2018-08-30T22:32:31.962Z,12.99
2018-08-30T22:35:00.377Z,12.95
2018-08-30T22:37:28.748Z,12.97
2018-08-30T22:39:57.179Z,12.99
2018-08-30T22:42:25.500Z,12.96
2018-08-30T22:44:53.863Z,12.92
2018-08-30T22:47:22.209Z,12.81
2018-08-30T22:49:50.601Z,12.86
2018-08-30T22:52:19.157Z,12.85
2018-08-30T22:54:47.545Z,12.88
2018-08-30T22:57:15.940Z,12.73
2018-08-30T22:59:44.654Z,12.78
2018-08-30T23:02:13.102Z,12.77
2018-08-30T23:04:41.410Z,12.76
2018-08-30T23:07:09.821Z,12.74
2018-08-30T23:09:38.237Z,12.75
2018-08-30T23:12:07.283Z,12.75
2018-08-30T23:14:36.085Z,12.70
2018-08-30T23:17:04.485Z,12.68
2018-08-30T23:19:33.400Z,12.71
2018-08-30T23:22:01.861Z,12.66
2018-08-30T23:24:30.240Z,12.66
2018-08-30T23:26:58.619Z,12.64
2018-08-30T23:29:27.024Z,12.58
2018-08-30T23:31:55.482Z,12.57
2018-08-30T23:34:23.882Z,12.56
2018-08-30T23:36:52.298Z,12.49
2018-08-30T23:39:20.668Z,12.44
2018-08-30T23:41:49.024Z,12.42
2018-08-30T23:44:17.483Z,12.40
2018-08-30T23:46:45.859Z,12.37
2018-08-30T23:49:14.285Z,12.32
2018-08-30T23:51:42.678Z,12.37
2018-08-30T23:54:11.082Z,12.36
2018-08-30T23:56:39.525Z,12.36
2018-08-30T23:59:19.050Z,12.37
